createdAt,value
2022-08-04T00:00:42.397Z,97.38
2022-08-04T00:01:42.598Z,97.19
2022-08-04T00:02:42.404Z,96.89
2022-08-04T00:03:42.402Z,97.09
2022-08-04T00:04:42.423Z,96.7
2022-08-04T00:05:42.440Z,96.8
2022-08-04T00:06:42.408Z,97.09
2022-08-04T00:07:47.193Z,96.7
2022-08-04T00:08:42.421Z,97.38
2022-08-04T00:09:42.447Z,97.57
2022-08-04T00:10:45.165Z,97.19
2022-08-04T00:11:42.412Z,96.7
2022-08-04T00:12:42.422Z,97.19
2022-08-04T00:14:05.478Z,98.15
2022-08-04T00:14:42.442Z,97.96
2022-08-04T00:15:42.426Z,98
2022-08-04T00:16:42.420Z,98.44
2022-08-04T00:17:42.450Z,98.39
2022-08-04T00:18:42.473Z,98.25
2022-08-04T00:19:42.451Z,98.25
2022-08-04T00:20:42.445Z,98.34
2022-08-04T00:21:45.319Z,97.86
2022-08-04T00:22:42.431Z,97.86
2022-08-04T00:24:16.464Z,98.15
2022-08-04T00:24:42.527Z,98.44
2022-08-04T00:25:42.440Z,97.86
2022-08-04T00:26:42.467Z,98.63
2022-08-04T00:27:42.440Z,98.54
2022-08-04T00:28:42.445Z,98.05
2022-08-04T00:29:42.474Z,99.02
2022-08-04T00:30:42.447Z,98.34
2022-08-04T00:31:58.469Z,98.25
2022-08-04T00:32:42.451Z,97.96
2022-08-04T00:33:44.864Z,97.47
2022-08-04T00:34:42.478Z,97.96
2022-08-04T00:35:42.461Z,97.86
2022-08-04T00:36:42.461Z,97.47
2022-08-04T00:37:42.471Z,97.67
2022-08-04T00:38:42.467Z,97.57
2022-08-04T00:39:42.701Z,98.25
2022-08-04T00:40:42.469Z,97.96
2022-08-04T00:41:59.108Z,97.67
2022-08-04T00:42:58.850Z,98.34
2022-08-04T00:43:42.472Z,98.05
2022-08-04T00:44:42.495Z,98.25
2022-08-04T00:46:18.536Z,98.83
2022-08-04T00:46:42.476Z,98.97
2022-08-04T00:47:42.495Z,99.07
2022-08-04T00:48:42.483Z,99.65
2022-08-04T00:49:42.510Z,99.74
2022-08-04T00:50:44.090Z,99.65
2022-08-04T00:51:42.490Z,99.99
2022-08-04T00:52:42.497Z,99.74
2022-08-04T00:53:52.133Z,99.99
2022-08-04T00:54:42.607Z,99.99
2022-08-04T00:55:42.502Z,99.99
2022-08-04T00:56:42.498Z,99.99
2022-08-04T00:57:42.503Z,99.99
2022-08-04T00:58:42.499Z,99.99
2022-08-04T00:59:42.523Z,99.99
2022-08-04T01:00:42.500Z,99.99
2022-08-04T01:01:42.610Z,99.99
2022-08-04T01:02:42.504Z,99.99
2022-08-04T01:03:42.508Z,99.99
2022-08-04T01:04:45.660Z,99.99
2022-08-04T01:05:42.515Z,99.99
2022-08-04T01:06:42.532Z,99.99
2022-08-04T01:07:42.511Z,99.99
2022-08-04T01:08:42.521Z,99.99
2022-08-04T01:09:42.528Z,99.99
2022-08-04T01:10:42.524Z,99.99
2022-08-04T01:12:00.905Z,99.99
2022-08-04T01:12:42.528Z,99.99
2022-08-04T01:13:42.527Z,99.99
2022-08-04T01:14:42.536Z,99.99
2022-08-04T01:16:02.844Z,99.99
2022-08-04T01:16:42.546Z,99.99
2022-08-04T01:17:42.532Z,99.99
2022-08-04T01:18:42.535Z,99.99
2022-08-04T01:19:42.542Z,99.99
2022-08-04T01:20:42.548Z,99.99
2022-08-04T01:21:42.544Z,99.99
2022-08-04T01:22:42.543Z,99.99
2022-08-04T01:23:42.547Z,99.99
2022-08-04T01:24:43.389Z,99.99
2022-08-04T01:25:44.352Z,99.99
2022-08-04T01:26:59.714Z,99.99
2022-08-04T01:27:44.081Z,99.99
2022-08-04T01:28:45.320Z,99.99
2022-08-04T01:29:48.919Z,99.99
2022-08-04T01:30:42.570Z,99.99
2022-08-04T01:31:42.568Z,99.99
2022-08-04T01:32:42.580Z,99.99
2022-08-04T01:34:06.373Z,99.99
2022-08-04T01:34:42.568Z,99.99
2022-08-04T01:35:50.426Z,99.99
2022-08-04T01:36:42.687Z,99.99
2022-08-04T01:37:45.459Z,99.99
2022-08-04T01:38:42.569Z,99.99
2022-08-04T01:39:42.575Z,99.99
2022-08-04T01:40:42.610Z,99.99
2022-08-04T01:42:00.176Z,99.99
2022-08-04T01:42:42.582Z,99.99
2022-08-04T01:43:42.580Z,99.99
2022-08-04T01:44:42.584Z,99.99
2022-08-04T01:45:42.620Z,99.99
2022-08-04T01:46:42.588Z,99.99
2022-08-04T01:47:42.583Z,99.99
2022-08-04T01:48:45.701Z,99.99
2022-08-04T01:49:43.430Z,99.99
2022-08-04T01:50:42.622Z,99.99
2022-08-04T01:51:42.601Z,99.99
2022-08-04T01:52:44.616Z,99.99
2022-08-04T01:53:42.813Z,99.99
2022-08-04T01:54:42.605Z,99.99
2022-08-04T01:55:56.879Z,99.99
2022-08-04T01:56:42.605Z,99.99
2022-08-04T01:57:42.775Z,99.99
2022-08-04T01:58:42.613Z,99.99
2022-08-04T01:59:45.417Z,99.99
2022-08-04T02:00:42.663Z,99.99
2022-08-04T02:01:42.882Z,99.99
2022-08-04T02:02:42.783Z,99.99
2022-08-04T02:04:24.861Z,99.99
2022-08-04T02:04:42.636Z,99.99
2022-08-04T02:06:06.408Z,99.99
2022-08-04T02:06:42.635Z,99.99
2022-08-04T02:07:42.627Z,99.99
2022-08-04T02:08:42.625Z,99.99
2022-08-04T02:09:57.261Z,99.99
2022-08-04T02:10:45.438Z,99.99
2022-08-04T02:11:42.631Z,99.99
2022-08-04T02:12:42.641Z,99.99
2022-08-04T02:13:42.640Z,99.99
2022-08-04T02:14:42.643Z,99.99
2022-08-04T02:15:42.668Z,99.99
2022-08-04T02:16:42.647Z,99.99
2022-08-04T02:17:42.643Z,99.99
2022-08-04T02:18:42.646Z,99.99
2022-08-04T02:19:42.651Z,99.99
2022-08-04T02:20:42.677Z,99.99
2022-08-04T02:21:48.099Z,99.99
2022-08-04T02:22:42.657Z,99.99
2022-08-04T02:23:42.661Z,99.99
2022-08-04T02:24:42.658Z,99.99
2022-08-04T02:25:42.695Z,99.99
2022-08-04T02:26:42.699Z,99.99
2022-08-04T02:28:02.347Z,99.99
2022-08-04T02:28:42.662Z,99.99
2022-08-04T02:29:42.668Z,99.99
2022-08-04T02:30:42.690Z,99.99
2022-08-04T02:31:42.671Z,99.99
2022-08-04T02:32:42.675Z,99.99
2022-08-04T02:33:42.674Z,99.99
2022-08-04T02:34:42.674Z,99.99
2022-08-04T02:35:42.699Z,99.99
2022-08-04T02:36:42.686Z,99.99
2022-08-04T02:37:45.526Z,99.99
2022-08-04T02:38:42.678Z,99.99
2022-08-04T02:39:50.356Z,99.99
2022-08-04T02:40:42.708Z,99.99
2022-08-04T02:41:42.693Z,99.99
2022-08-04T02:42:42.704Z,99.99
2022-08-04T02:43:54.362Z,99.99
2022-08-04T02:44:42.694Z,99.99
2022-08-04T02:45:42.733Z,99.99
2022-08-04T02:46:42.694Z,99.99
2022-08-04T02:48:32.113Z,99.99
2022-08-04T02:48:44.546Z,99.99
2022-08-04T02:49:44.547Z,99.99
2022-08-04T02:50:44.522Z,99.99
2022-08-04T02:51:44.509Z,99.99
2022-08-04T02:52:44.504Z,99.99
2022-08-04T02:53:44.504Z,99.99
2022-08-04T02:54:44.519Z,99.99
2022-08-04T02:55:56.596Z,99.99
2022-08-04T02:56:44.657Z,99.99
2022-08-04T02:57:44.521Z,99.99
2022-08-04T02:58:44.511Z,99.99
2022-08-04T02:59:44.515Z,99.99
2022-08-04T03:00:44.680Z,99.99
2022-08-04T03:02:00.300Z,99.99
2022-08-04T03:02:44.519Z,99.99
2022-08-04T03:03:44.528Z,99.99
2022-08-04T03:04:44.523Z,99.99
2022-08-04T03:06:05.425Z,99.99
